Skip Navigation Links
NOAA logo - Click to go to the NOAA homepage
NOAA's National Weather Service
Alaska Aviation Weather Unit
  NWS logo - Click to go to the NWS homepage
Left Navbar Graphic     23 AKDT = 07 GMT

   
NOAA is celebrating 200 years of science, service, and stewardship. Visit the NOAA 200th celebration Web site to learn more.
USA.gov is the U.S. Government's official Web portal to all Federal, state and local government Web resources and services.
Facebook
NWS on Facebook

Important Change Regarding the AAWU Web Presence

 

Over the last several months, the AAWU has been working to navigate its webpages to a nationally supported server. Security, as well as other needs, have necessitated the change.  In the process, we have made an effort to enhance the functionality of our website, as well as some of our products. As of June 20, 2017, aawu.arh.noaa.gov will be discontinued. The new AAWU web address is weather.gov/aawu. It is now live and will run in-parallel with the old site until it is discontinued. Please send any feedback or questions regarding the new webpages to nws.ar.aawu.webauthors@noaa.gov.  Thank you for your patience during this time of transition.
AAWU Home :: Display TAF Add Bookmark
TAF PAGK 240521Z 2406/2506 15011KT P6SM SCT070 BKN120
     FM241500 16013G20KT P6SM SCT060 BKN100
     FM241800 16024G34KT P6SM SCT060 BKN100=
METAR PAGK 240153Z AUTO 28005KT 10SM OVC095 11/01 A2993 RMK AO2 SLP150
     T01110006 TSNO $=

METAR PAGK 240253Z AUTO 26006G14KT 10SM SCT070 SCT085 BKN110 10/01
 A2995 RMK AO2 SLP156 T01000006 53012 TSNO $=

METAR PAGK 240353Z AUTO VRB03KT 10SM FEW070 12/M01 A2995 RMK AO2 SLP154
     T01171011 TSNO $=

METAR PAGK 240453Z AUTO 14008KT 10SM SCT075 BKN110 09/01 A2998 RMK
 AO2 SLP160 T00940011 TSNO $=

METAR PAGK 240553Z AUTO 13006KT 10SM CLR 08/02 A2998 RMK AO2 SLP162
 T00830017 10139 20083 52008 TSNO $=


NOAA's National Weather Service
Alaska Aviation Weather Unit
6930 Sand Lake Road
Anchorage, AK 99502-1845
Disclaimer
Credits
Glossary
Privacy Policy
About Us
Career Opportunities
Contact AAWU Internet Services Site last modified: April, 17th 2012